Time;durP1;ratioP1;P1;durP2;ratioP2;P2;SDS_P1;SDS_P2;PMS_P1;PMS_P2;Temp;Humidity;BMP_temperature;BMP_pressure;BME280_temperature;BME280_humidity;BME280_pressure;Samples;Min_cycle;Max_cycle;Signal;HPM_P1;HPM_P2
2022/10/15 00:00:44;;;;;;;;;;;26.80;98.00;;;;;;6167358;23;19913;-48
2022/10/15 00:03:10;;;;;;;;;;;26.80;98.00;;;;;;6167474;23;20069;-43
2022/10/15 00:05:37;;;;;;;;;;;26.80;98.00;;;;;;6166985;23;19905;-46
2022/10/15 00:08:03;;;;;;;;;;;26.80;98.00;;;;;;6167126;23;19935;-47
2022/10/15 00:10:32;;;;;;;;;;;26.80;98.00;;;;;;6167391;23;19909;-45
2022/10/15 00:12:58;;;;;;;;;;;26.80;98.10;;;;;;6165810;23;19928;-52
2022/10/15 00:15:24;;;;;;;;;;;26.70;98.10;;;;;;6166159;23;19912;-50
2022/10/15 00:17:50;;;;;;;;;;;26.70;98.10;;;;;;6166344;23;19908;-47
2022/10/15 00:20:17;;;;;;;;;;;26.70;98.00;;;;;;6166928;23;19915;-50
2022/10/15 00:22:44;;;;;;;;;;;26.70;98.00;;;;;;6165497;23;20104;-49
2022/10/15 00:25:10;;;;;;;;;;;26.70;98.00;;;;;;6166708;23;19984;-49
2022/10/15 00:27:37;;;;;;;;;;;26.70;98.00;;;;;;6165766;23;19904;-54
2022/10/15 00:30:04;;;;;;;;;;;26.70;97.90;;;;;;6166545;23;19936;-44
2022/10/15 00:32:30;;;;;;;;;;;26.70;97.80;;;;;;6166622;23;20130;-49
2022/10/15 00:34:56;;;;;;;;;;;26.70;97.80;;;;;;6167013;23;19920;-49
2022/10/15 00:37:23;;;;;;;;;;;26.70;97.80;;;;;;6166759;23;20131;-55
2022/10/15 00:39:49;;;;;;;;;;;26.70;97.70;;;;;;6165357;23;19960;-53
2022/10/15 00:42:15;;;;;;;;;;;26.70;97.70;;;;;;6164663;23;19927;-43
2022/10/15 00:44:53;;;;;;;;;;;26.70;97.60;;;;;;6166621;23;20235;-48
2022/10/15 00:47:19;;;;;;;;;;;26.70;97.60;;;;;;6166721;23;19956;-56
2022/10/15 00:49:50;;;;;;;;;;;26.70;97.60;;;;;;6166712;23;20285;-53
2022/10/15 00:52:23;;;;;;;;;;;26.70;97.60;;;;;;6167475;23;19904;-53
2022/10/15 00:54:52;;;;;;;;;;;26.70;97.50;;;;;;6166190;23;19916;-52
2022/10/15 00:57:18;;;;;;;;;;;26.70;97.40;;;;;;6166617;23;19904;-51
2022/10/15 00:59:49;;;;;;;;;;;26.70;97.40;;;;;;6166407;23;19905;-51
2022/10/15 01:02:17;;;;;;;;;;;26.70;97.40;;;;;;6166511;23;20252;-53
2022/10/15 01:04:44;;;;;;;;;;;26.70;97.40;;;;;;6166758;23;19917;-41
2022/10/15 01:07:11;;;;;;;;;;;26.70;97.30;;;;;;6166287;23;19904;-46
2022/10/15 01:09:37;;;;;;;;;;;26.70;97.30;;;;;;6166800;23;19915;-43
2022/10/15 01:12:06;;;;;;;;;;;26.70;97.30;;;;;;6167241;23;19928;-43
2022/10/15 01:14:35;;;;;;;;;;;26.60;97.20;;;;;;6166746;23;19912;-56
2022/10/15 01:17:08;;;;;;;;;;;26.60;97.20;;;;;;6166352;23;19908;-51
2022/10/15 01:19:52;;;;;;;;;;;26.60;97.10;;;;;;6166850;23;19947;-56
2022/10/15 01:22:27;;;;;;;;;;;26.60;96.90;;;;;;6166413;23;20132;-49
2022/10/15 01:25:03;;;;;;;;;;;26.60;96.80;;;;;;6166780;23;19916;-46
2022/10/15 01:27:37;;;;;;;;;;;26.60;96.60;;;;;;6166606;23;19905;-52
2022/10/15 01:30:04;;;;;;;;;;;26.60;96.60;;;;;;6166847;23;19969;-46
2022/10/15 01:32:38;;;;;;;;;;;26.60;96.40;;;;;;6166389;23;20255;-49
2022/10/15 01:35:30;;;;;;;;;;;26.60;96.40;;;;;;6166426;23;19952;-44
2022/10/15 01:38:05;;;;;;;;;;;26.50;96.30;;;;;;6132010;23;19909;-42
2022/10/15 01:40:58;;;;;;;;;;;26.50;96.20;;;;;;6166569;23;19912;-43
2022/10/15 01:43:45;;;;;;;;;;;26.50;96.20;;;;;;6132230;23;19928;-51
2022/10/15 01:46:20;;;;;;;;;;;26.50;96.10;;;;;;6166661;23;19909;-46
2022/10/15 01:48:46;;;;;;;;;;;26.50;96.10;;;;;;6166119;23;19912;-55
2022/10/15 01:51:13;;;;;;;;;;;26.50;96.30;;;;;;6166255;23;19904;-48
2022/10/15 01:53:41;;;;;;;;;;;26.50;96.00;;;;;;6166228;23;20009;-48
2022/10/15 01:56:10;;;;;;;;;;;26.50;96.00;;;;;;6165632;23;19913;-54
2022/10/15 01:58:40;;;;;;;;;;;26.50;96.00;;;;;;6166351;23;19911;-50
2022/10/15 02:01:07;;;;;;;;;;;26.50;95.90;;;;;;6165977;23;19932;-46
2022/10/15 02:03:42;;;;;;;;;;;26.40;95.70;;;;;;6166087;23;19904;-48
2022/10/15 02:06:10;;;;;;;;;;;26.40;95.50;;;;;;6166384;23;19908;-54
2022/10/15 02:08:37;;;;;;;;;;;26.40;95.50;;;;;;6166113;23;19956;-49
2022/10/15 02:11:05;;;;;;;;;;;26.40;95.40;;;;;;6166361;23;19924;-52
2022/10/15 02:13:52;;;;;;;;;;;26.40;95.20;;;;;;6166048;23;19928;-56
2022/10/15 02:16:18;;;;;;;;;;;26.40;95.20;;;;;;6150867;23;19920;-52
2022/10/15 02:18:47;;;;;;;;;;;26.30;95.10;;;;;;6166193;23;19904;-55
2022/10/15 02:21:20;;;;;;;;;;;26.40;94.90;;;;;;6166097;23;19909;-50
2022/10/15 02:23:51;;;;;;;;;;;26.40;95.00;;;;;;6166240;23;19943;-48
2022/10/15 02:26:19;;;;;;;;;;;26.30;94.80;;;;;;6166191;23;19911;-43
2022/10/15 02:28:47;;;;;;;;;;;26.30;94.70;;;;;;6167268;23;19947;-44
2022/10/15 02:31:14;;;;;;;;;;;26.30;94.60;;;;;;6167925;23;19991;-48
2022/10/15 02:33:41;;;;;;;;;;;26.30;94.60;;;;;;6168105;23;19905;-47
2022/10/15 02:36:07;;;;;;;;;;;26.30;94.60;;;;;;6167795;23;20232;-46
2022/10/15 02:38:34;;;;;;;;;;;26.30;94.40;;;;;;6168181;23;19932;-52
2022/10/15 02:41:01;;;;;;;;;;;26.30;94.50;;;;;;6168513;23;19919;-54
2022/10/15 02:43:27;;;;;;;;;;;26.30;94.40;;;;;;6167800;23;19961;-44
2022/10/15 02:45:53;;;;;;;;;;;26.30;94.50;;;;;;6168561;23;19911;-43
2022/10/15 02:48:19;;;;;;;;;;;26.30;94.50;;;;;;6167970;23;20219;-44
2022/10/15 02:50:45;;;;;;;;;;;26.30;94.40;;;;;;6168191;23;19928;-45
2022/10/15 02:53:12;;;;;;;;;;;26.30;94.40;;;;;;6167824;23;20108;-49
2022/10/15 02:55:38;;;;;;;;;;;26.30;94.30;;;;;;6167574;23;19920;-49
2022/10/15 02:58:04;;;;;;;;;;;26.30;94.40;;;;;;6167944;23;19901;-41
2022/10/15 03:00:30;;;;;;;;;;;26.30;94.40;;;;;;6168265;23;20180;-50
2022/10/15 03:02:56;;;;;;;;;;;26.30;94.40;;;;;;6167618;23;19947;-44
2022/10/15 03:05:22;;;;;;;;;;;26.30;94.40;;;;;;6168216;23;19909;-48
2022/10/15 03:07:48;;;;;;;;;;;26.30;94.30;;;;;;6167574;23;19964;-52
2022/10/15 03:10:15;;;;;;;;;;;26.30;94.30;;;;;;6168061;23;19912;-40
2022/10/15 03:12:41;;;;;;;;;;;26.30;94.20;;;;;;6167641;23;19944;-44
2022/10/15 03:15:07;;;;;;;;;;;26.30;94.30;;;;;;6167764;23;19951;-42
2022/10/15 03:17:33;;;;;;;;;;;26.30;94.30;;;;;;6167541;23;19928;-43
2022/10/15 03:20:00;;;;;;;;;;;26.30;94.00;;;;;;6168020;23;19951;-46
2022/10/15 03:22:26;;;;;;;;;;;26.30;94.20;;;;;;6167743;23;19904;-41
2022/10/15 03:24:52;;;;;;;;;;;26.20;94.10;;;;;;6167902;23;20180;-41
2022/10/15 03:27:18;;;;;;;;;;;26.30;94.20;;;;;;6167502;23;19905;-46
2022/10/15 03:29:44;;;;;;;;;;;26.20;94.30;;;;;;6167227;23;20214;-45
2022/10/15 03:32:10;;;;;;;;;;;26.20;94.10;;;;;;6167826;23;19905;-46
2022/10/15 03:34:36;;;;;;;;;;;26.20;94.10;;;;;;6167806;23;19965;-43
2022/10/15 03:37:02;;;;;;;;;;;26.30;94.00;;;;;;6167343;23;19912;-46
2022/10/15 03:39:29;;;;;;;;;;;26.20;93.90;;;;;;6167727;23;19908;-42
2022/10/15 03:41:55;;;;;;;;;;;26.20;94.00;;;;;;6167324;23;20004;-43
2022/10/15 03:44:21;;;;;;;;;;;26.20;94.00;;;;;;6167371;23;19912;-45
2022/10/15 03:46:48;;;;;;;;;;;26.20;93.90;;;;;;6167547;23;19924;-54
2022/10/15 03:49:14;;;;;;;;;;;26.20;94.20;;;;;;6167396;23;19936;-52
2022/10/15 03:51:40;;;;;;;;;;;26.20;93.90;;;;;;6167260;23;19901;-46
2022/10/15 03:54:06;;;;;;;;;;;26.20;93.90;;;;;;6166890;23;20128;-44
2022/10/15 03:56:33;;;;;;;;;;;26.10;93.80;;;;;;6167423;23;19928;-48
2022/10/15 03:58:59;;;;;;;;;;;26.10;93.80;;;;;;6167400;23;19912;-43
2022/10/15 04:01:25;;;;;;;;;;;26.20;93.90;;;;;;6167237;23;19908;-51
2022/10/15 04:03:53;;;;;;;;;;;26.20;93.80;;;;;;6167185;23;19901;-45
2022/10/15 04:06:19;;;;;;;;;;;26.20;93.80;;;;;;6167232;23;19904;-50
2022/10/15 04:08:45;;;;;;;;;;;26.20;93.70;;;;;;6166970;23;19948;-45
2022/10/15 04:11:12;;;;;;;;;;;26.10;93.50;;;;;;6167220;23;19959;-48
2022/10/15 04:13:38;;;;;;;;;;;26.10;93.50;;;;;;6167055;23;19951;-48
2022/10/15 04:16:04;;;;;;;;;;;26.10;93.50;;;;;;6166987;23;19911;-48
2022/10/15 04:18:31;;;;;;;;;;;26.10;93.40;;;;;;6167312;23;19905;-41
2022/10/15 04:21:00;;;;;;;;;;;26.10;93.50;;;;;;6167541;23;20004;-43
2022/10/15 04:23:26;;;;;;;;;;;26.10;93.50;;;;;;6166949;23;19907;-45
2022/10/15 04:25:53;;;;;;;;;;;26.10;93.50;;;;;;6167679;23;20189;-43
2022/10/15 04:28:19;;;;;;;;;;;26.10;93.50;;;;;;6167199;23;19923;-43
2022/10/15 04:30:45;;;;;;;;;;;26.10;93.30;;;;;;6167347;23;20092;-59
2022/10/15 04:33:11;;;;;;;;;;;26.10;93.60;;;;;;6167105;23;19904;-54
2022/10/15 04:35:37;;;;;;;;;;;26.10;93.40;;;;;;6167398;23;19905;-52
2022/10/15 04:38:03;;;;;;;;;;;26.10;93.40;;;;;;6166720;23;19905;-42
2022/10/15 04:40:29;;;;;;;;;;;26.10;93.40;;;;;;6167205;23;20248;-44
2022/10/15 04:42:56;;;;;;;;;;;26.10;93.40;;;;;;6166852;23;19904;-50
2022/10/15 04:45:22;;;;;;;;;;;26.10;93.40;;;;;;6167239;23;19928;-49
2022/10/15 04:47:48;;;;;;;;;;;26.00;93.30;;;;;;6166713;23;19944;-49
2022/10/15 04:50:14;;;;;;;;;;;26.00;93.20;;;;;;6167117;23;19975;-55
2022/10/15 04:52:40;;;;;;;;;;;26.10;93.40;;;;;;6166549;23;20128;-46
2022/10/15 04:55:07;;;;;;;;;;;26.00;93.40;;;;;;6166458;23;19916;-52
2022/10/15 04:57:33;;;;;;;;;;;26.10;93.40;;;;;;6166887;23;19904;-43
2022/10/15 04:59:59;;;;;;;;;;;26.00;93.30;;;;;;6166271;23;19920;-43
2022/10/15 05:02:25;;;;;;;;;;;26.00;93.30;;;;;;6165734;23;19908;-47
2022/10/15 05:04:53;;;;;;;;;;;26.10;93.50;;;;;;6166859;23;19909;-42
2022/10/15 05:07:19;;;;;;;;;;;26.10;93.50;;;;;;6166843;23;19912;-41
2022/10/15 05:09:45;;;;;;;;;;;26.10;93.40;;;;;;6166796;23;19929;-50
2022/10/15 05:12:11;;;;;;;;;;;26.10;93.40;;;;;;6166727;23;19907;-45
2022/10/15 05:14:37;;;;;;;;;;;26.10;93.70;;;;;;6167173;23;19951;-50
2022/10/15 05:17:03;;;;;;;;;;;26.10;93.40;;;;;;6166547;23;20243;-44
2022/10/15 05:19:30;;;;;;;;;;;26.10;93.40;;;;;;6166982;23;20238;-48
2022/10/15 05:21:56;;;;;;;;;;;26.10;93.50;;;;;;6166692;23;19911;-42
2022/10/15 05:24:22;;;;;;;;;;;26.10;93.50;;;;;;6166692;23;19909;-44
2022/10/15 05:26:48;;;;;;;;;;;26.10;93.50;;;;;;6166225;23;19923;-49
2022/10/15 05:29:15;;;;;;;;;;;26.10;93.50;;;;;;6166700;23;19947;-44
2022/10/15 05:31:41;;;;;;;;;;;26.10;93.50;;;;;;6166532;23;19901;-49
2022/10/15 05:34:07;;;;;;;;;;;26.10;93.50;;;;;;6166569;23;19912;-45
2022/10/15 05:36:35;;;;;;;;;;;26.10;93.50;;;;;;6166588;23;19939;-46
2022/10/15 05:39:03;;;;;;;;;;;26.10;93.60;;;;;;6166607;23;19909;-44
2022/10/15 05:41:29;;;;;;;;;;;26.10;93.60;;;;;;6166391;23;19908;-44
2022/10/15 05:43:57;;;;;;;;;;;26.00;93.50;;;;;;6166521;23;19901;-47
2022/10/15 05:46:23;;;;;;;;;;;26.10;93.60;;;;;;6166565;23;20100;-50
2022/10/15 05:48:50;;;;;;;;;;;26.10;93.60;;;;;;6166263;23;19908;-47
2022/10/15 05:51:16;;;;;;;;;;;26.10;93.50;;;;;;6166443;23;19938;-45
2022/10/15 05:53:45;;;;;;;;;;;26.00;93.40;;;;;;6166216;23;19904;-51
2022/10/15 05:56:11;;;;;;;;;;;26.00;93.50;;;;;;6166169;23;19913;-48
2022/10/15 05:58:37;;;;;;;;;;;26.00;93.50;;;;;;6166344;23;20097;-43
2022/10/15 06:01:07;;;;;;;;;;;26.00;93.50;;;;;;6166643;23;19970;-42
2022/10/15 06:03:34;;;;;;;;;;;26.10;93.60;;;;;;6167120;23;20069;-40
2022/10/15 06:06:00;;;;;;;;;;;26.10;93.60;;;;;;6168826;23;19909;-44
2022/10/15 06:08:27;;;;;;;;;;;26.10;93.60;;;;;;6168350;23;19924;-50
2022/10/15 06:10:54;;;;;;;;;;;26.00;93.60;;;;;;6168696;23;19913;-45
2022/10/15 06:13:20;;;;;;;;;;;26.10;93.80;;;;;;6168219;23;19900;-45
2022/10/15 06:15:47;;;;;;;;;;;26.10;93.80;;;;;;6167772;23;19908;-51
2022/10/15 06:18:15;;;;;;;;;;;26.00;93.70;;;;;;6168210;23;19907;-43
2022/10/15 06:20:49;;;;;;;;;;;26.00;93.80;;;;;;6168536;23;20123;-41
2022/10/15 06:23:15;;;;;;;;;;;26.10;93.80;;;;;;6168388;23;19905;-53
2022/10/15 06:25:41;;;;;;;;;;;26.00;93.80;;;;;;6169110;23;19917;-47
2022/10/15 06:28:08;;;;;;;;;;;26.00;93.80;;;;;;6168466;23;19930;-48
2022/10/15 06:30:34;;;;;;;;;;;26.10;93.90;;;;;;6168409;23;19924;-45
2022/10/15 06:33:00;;;;;;;;;;;26.00;93.90;;;;;;6168033;23;20215;-47
2022/10/15 06:35:32;;;;;;;;;;;26.00;94.00;;;;;;6168477;23;20109;-43
2022/10/15 06:37:59;;;;;;;;;;;26.10;94.00;;;;;;6167952;23;19904;-48
2022/10/15 06:40:25;;;;;;;;;;;26.10;94.00;;;;;;6168151;23;20188;-45
2022/10/15 06:42:51;;;;;;;;;;;26.00;94.00;;;;;;6167988;23;19901;-47
2022/10/15 06:45:18;;;;;;;;;;;26.00;94.00;;;;;;6167702;23;20077;-47
2022/10/15 06:47:44;;;;;;;;;;;26.00;94.00;;;;;;6167769;23;19912;-40
2022/10/15 06:50:10;;;;;;;;;;;26.00;94.00;;;;;;6168397;23;19908;-43
2022/10/15 06:52:37;;;;;;;;;;;26.00;94.00;;;;;;6168005;23;19911;-47
2022/10/15 06:55:03;;;;;;;;;;;26.00;94.10;;;;;;6167904;23;20093;-47
2022/10/15 06:57:30;;;;;;;;;;;26.00;94.10;;;;;;6167936;23;19947;-54
2022/10/15 06:59:56;;;;;;;;;;;26.00;94.10;;;;;;6168116;23;19939;-52
2022/10/15 07:02:23;;;;;;;;;;;26.00;94.30;;;;;;6167567;23;19904;-51
2022/10/15 07:04:49;;;;;;;;;;;26.00;94.10;;;;;;6168113;23;20097;-50
2022/10/15 07:07:15;;;;;;;;;;;26.00;94.10;;;;;;6167774;23;19939;-49
2022/10/15 07:09:42;;;;;;;;;;;25.90;94.10;;;;;;6167945;23;19905;-50
2022/10/15 07:12:08;;;;;;;;;;;26.00;94.20;;;;;;6168024;23;19928;-55
2022/10/15 07:14:34;;;;;;;;;;;25.90;94.20;;;;;;6167882;23;19916;-46
2022/10/15 07:17:00;;;;;;;;;;;25.90;94.30;;;;;;6167631;23;19976;-44
2022/10/15 07:19:27;;;;;;;;;;;25.90;94.30;;;;;;6167726;23;19905;-43
2022/10/15 07:21:53;;;;;;;;;;;26.00;94.30;;;;;;6167467;23;19908;-42
2022/10/15 07:24:19;;;;;;;;;;;25.90;94.30;;;;;;6167618;23;19909;-43
2022/10/15 07:26:48;;;;;;;;;;;25.90;94.30;;;;;;6167704;23;19920;-40
2022/10/15 07:29:14;;;;;;;;;;;26.00;94.40;;;;;;6167705;23;19992;-44
2022/10/15 07:31:40;;;;;;;;;;;26.00;94.40;;;;;;6167575;23;19907;-50
2022/10/15 07:34:07;;;;;;;;;;;25.90;94.40;;;;;;6167533;23;19908;-43
2022/10/15 07:36:33;;;;;;;;;;;26.00;94.50;;;;;;6167463;23;20243;-46
2022/10/15 07:38:59;;;;;;;;;;;25.90;94.40;;;;;;6167722;23;19952;-41
2022/10/15 07:41:25;;;;;;;;;;;26.00;94.50;;;;;;6167253;23;20215;-48
2022/10/15 07:43:52;;;;;;;;;;;25.90;94.50;;;;;;6167672;23;19900;-44
2022/10/15 07:46:19;;;;;;;;;;;25.90;94.50;;;;;;6167382;23;19932;-52
2022/10/15 07:48:45;;;;;;;;;;;25.90;94.60;;;;;;6167264;23;20101;-41
2022/10/15 07:51:11;;;;;;;;;;;25.90;94.60;;;;;;6167307;23;20185;-41
2022/10/15 07:53:37;;;;;;;;;;;25.90;94.60;;;;;;6167634;23;19957;-43
2022/10/15 07:56:06;;;;;;;;;;;25.90;94.70;;;;;;6166993;23;19959;-50
2022/10/15 07:58:33;;;;;;;;;;;25.90;94.90;;;;;;6167606;23;19912;-42
2022/10/15 08:01:18;;;;;;;;;;;25.90;94.90;;;;;;6167738;23;19919;-45
2022/10/15 08:03:45;;;;;;;;;;;25.80;94.90;;;;;;6167103;23;20099;-48
2022/10/15 08:06:11;;;;;;;;;;;25.80;95.00;;;;;;6167217;23;19905;-48
2022/10/15 08:08:37;;;;;;;;;;;25.80;94.90;;;;;;6167152;23;19905;-49
2022/10/15 08:11:10;;;;;;;;;;;25.80;95.00;;;;;;6167204;23;19909;-42
2022/10/15 08:13:41;;;;;;;;;;;25.80;94.90;;;;;;6166975;23;19905;-41
2022/10/15 08:16:10;;;;;;;;;;;25.80;94.90;;;;;;6167186;23;19928;-44
2022/10/15 08:18:37;;;;;;;;;;;25.80;94.90;;;;;;6166911;23;19959;-47
2022/10/15 08:21:04;;;;;;;;;;;25.80;94.90;;;;;;6166881;23;19908;-47
2022/10/15 08:23:30;;;;;;;;;;;25.80;94.90;;;;;;6166832;23;19900;-44
2022/10/15 08:25:59;;;;;;;;;;;25.80;94.90;;;;;;6167426;23;19912;-42
2022/10/15 08:28:26;;;;;;;;;;;25.80;94.90;;;;;;6167066;23;19912;-53
2022/10/15 08:30:52;;;;;;;;;;;25.90;94.90;;;;;;6166947;23;19908;-45
2022/10/15 08:33:18;;;;;;;;;;;25.80;94.90;;;;;;6166934;23;19924;-43
2022/10/15 08:35:44;;;;;;;;;;;25.80;94.90;;;;;;6167485;23;19952;-48
2022/10/15 08:38:11;;;;;;;;;;;25.80;94.80;;;;;;6166754;23;19912;-59
2022/10/15 08:40:37;;;;;;;;;;;25.80;94.90;;;;;;6167260;23;19920;-45
2022/10/15 08:43:04;;;;;;;;;;;25.80;94.90;;;;;;6166825;23;19912;-45
2022/10/15 08:45:32;;;;;;;;;;;25.80;94.90;;;;;;6167111;23;19909;-47
2022/10/15 08:48:00;;;;;;;;;;;25.80;94.90;;;;;;6166808;23;19900;-49
2022/10/15 08:50:32;;;;;;;;;;;25.80;95.00;;;;;;6167606;23;20187;-47
2022/10/15 08:52:59;;;;;;;;;;;25.80;95.00;;;;;;6166594;23;20128;-49
2022/10/15 08:55:29;;;;;;;;;;;25.80;95.00;;;;;;6166418;23;19964;-52
2022/10/15 08:57:58;;;;;;;;;;;25.80;95.10;;;;;;6166753;23;19904;-46
2022/10/15 09:00:32;;;;;;;;;;;25.80;95.10;;;;;;6166981;23;19954;-53
2022/10/15 09:03:10;;;;;;;;;;;25.80;95.10;;;;;;6166730;23;20096;-45
2022/10/15 09:05:55;;;;;;;;;;;25.70;95.10;;;;;;6167049;23;19909;-42
2022/10/15 09:08:21;;;;;;;;;;;25.80;95.20;;;;;;6167011;23;19948;-46
2022/10/15 09:10:47;;;;;;;;;;;25.70;95.20;;;;;;6167004;23;20124;-53
2022/10/15 09:13:16;;;;;;;;;;;25.80;95.30;;;;;;6166891;23;19901;-41
2022/10/15 09:15:47;;;;;;;;;;;25.80;95.30;;;;;;6166660;23;19909;-49
2022/10/15 09:18:17;;;;;;;;;;;25.80;95.30;;;;;;6166531;23;19952;-47
2022/10/15 09:20:44;;;;;;;;;;;25.80;95.30;;;;;;6167102;23;20099;-49
2022/10/15 09:23:18;;;;;;;;;;;25.80;95.30;;;;;;6166378;23;19968;-42
2022/10/15 09:25:48;;;;;;;;;;;25.80;95.30;;;;;;6165786;23;19912;-42
2022/10/15 09:28:16;;;;;;;;;;;25.80;95.40;;;;;;6164747;23;19904;-56
2022/10/15 09:30:46;;;;;;;;;;;25.80;95.40;;;;;;6164566;23;19908;-45
2022/10/15 09:33:27;;;;;;;;;;;25.80;95.40;;;;;;6165349;23;19927;-42
2022/10/15 09:36:00;;;;;;;;;;;25.80;95.40;;;;;;6165567;23;19908;-47
2022/10/15 09:38:42;;;;;;;;;;;25.80;95.50;;;;;;6166480;23;20078;-41
2022/10/15 09:41:20;;;;;;;;;;;25.80;95.60;;;;;;6167160;23;19919;-44
2022/10/15 09:43:48;;;;;;;;;;;25.80;95.60;;;;;;6169011;23;19904;-45
2022/10/15 09:46:15;;;;;;;;;;;25.80;95.60;;;;;;6168382;23;19911;-50
2022/10/15 09:48:44;;;;;;;;;;;25.80;95.60;;;;;;6166534;23;19905;-48
2022/10/15 09:51:25;;;;;;;;;;;25.80;95.60;;;;;;6166671;23;19928;-47
2022/10/15 09:53:57;;;;;;;;;;;25.80;95.60;;;;;;6166225;23;19904;-48
2022/10/15 09:56:25;;;;;;;;;;;25.80;95.60;;;;;;6166675;23;19908;-44
2022/10/15 09:58:53;;;;;;;;;;;25.80;95.60;;;;;;6166875;23;20209;-52
2022/10/15 10:01:23;;;;;;;;;;;25.80;95.60;;;;;;6166785;23;19908;-55
2022/10/15 10:04:07;;;;;;;;;;;25.80;95.70;;;;;;6168660;23;20193;-44
2022/10/15 10:06:41;;;;;;;;;;;25.70;95.70;;;;;;6168771;23;19934;-49
2022/10/15 10:09:13;;;;;;;;;;;25.70;95.70;;;;;;6168611;23;19908;-42
2022/10/15 10:11:47;;;;;;;;;;;25.70;95.70;;;;;;6168336;23;19904;-40
2022/10/15 10:14:21;;;;;;;;;;;25.70;95.70;;;;;;6168535;23;20232;-49
2022/10/15 10:17:07;;;;;;;;;;;25.70;95.70;;;;;;6168572;23;19904;-45
2022/10/15 10:19:33;;;;;;;;;;;25.80;95.80;;;;;;6168523;23;19909;-44
2022/10/15 10:22:12;;;;;;;;;;;25.80;95.80;;;;;;6168204;23;19932;-47
2022/10/15 10:24:38;;;;;;;;;;;25.80;95.80;;;;;;6168484;23;19920;-51
2022/10/15 10:27:14;;;;;;;;;;;25.80;95.80;;;;;;6168209;23;19904;-45
2022/10/15 10:29:42;;;;;;;;;;;25.80;95.80;;;;;;6167435;23;20159;-45
2022/10/15 10:32:10;;;;;;;;;;;25.70;95.80;;;;;;6166245;23;19911;-45
2022/10/15 10:34:36;;;;;;;;;;;25.70;95.80;;;;;;6168363;23;20181;-44
2022/10/15 10:37:03;;;;;;;;;;;25.70;95.80;;;;;;6167694;23;19904;-46
2022/10/15 10:39:34;;;;;;;;;;;25.70;95.70;;;;;;6168113;23;19909;-44
2022/10/15 10:42:03;;;;;;;;;;;25.70;95.90;;;;;;6167515;23;19915;-41
2022/10/15 10:44:29;;;;;;;;;;;25.70;95.90;;;;;;6167929;23;19909;-43
2022/10/15 10:47:07;;;;;;;;;;;25.70;95.80;;;;;;6167444;23;20197;-48
2022/10/15 10:49:35;;;;;;;;;;;25.70;95.90;;;;;;6167137;23;19908;-46
2022/10/15 10:52:01;;;;;;;;;;;25.70;95.80;;;;;;6167618;23;19936;-42
2022/10/15 10:54:27;;;;;;;;;;;25.70;95.90;;;;;;6167823;23;19917;-47
2022/10/15 10:56:55;;;;;;;;;;;25.80;95.90;;;;;;6167465;23;20112;-52
2022/10/15 10:59:27;;;;;;;;;;;25.80;96.00;;;;;;6167906;23;19924;-44
2022/10/15 11:01:55;;;;;;;;;;;25.80;96.00;;;;;;6167496;23;19909;-43
2022/10/15 11:04:26;;;;;;;;;;;25.80;96.00;;;;;;6167798;23;19948;-43
2022/10/15 11:06:52;;;;;;;;;;;25.70;96.00;;;;;;6167362;23;19905;-46
2022/10/15 11:09:18;;;;;;;;;;;25.70;96.10;;;;;;6167866;23;19915;-45
2022/10/15 11:11:46;;;;;;;;;;;25.70;96.10;;;;;;6167617;23;20184;-50
2022/10/15 11:14:16;;;;;;;;;;;25.70;96.10;;;;;;6167759;23;19917;-48
2022/10/15 11:17:00;;;;;;;;;;;25.80;96.30;;;;;;6167746;23;19908;-46
2022/10/15 11:19:45;;;;;;;;;;;25.80;96.30;;;;;;6167751;23;20229;-48
2022/10/15 11:22:34;;;;;;;;;;;25.80;96.30;;;;;;6166843;23;19916;-47
2022/10/15 11:25:07;;;;;;;;;;;25.80;96.30;;;;;;6125956;23;20207;-40
2022/10/15 11:28:00;;;;;;;;;;;25.80;96.30;;;;;;6167370;23;19900;-44
2022/10/15 11:30:35;;;;;;;;;;;25.80;96.30;;;;;;6163792;23;19916;-44
2022/10/15 11:33:19;;;;;;;;;;;25.90;96.40;;;;;;6167178;23;19900;-46
2022/10/15 11:35:54;;;;;;;;;;;25.90;96.30;;;;;;6167825;23;19908;-45
2022/10/15 11:38:24;;;;;;;;;;;25.90;96.40;;;;;;6166842;23;19927;-51
2022/10/15 11:41:09;;;;;;;;;;;25.90;96.40;;;;;;6167736;23;19913;-44
2022/10/15 11:43:50;;;;;;;;;;;26.00;96.40;;;;;;6167676;23;20200;-48
2022/10/15 11:46:22;;;;;;;;;;;26.00;96.40;;;;;;6167255;23;19908;-46
2022/10/15 11:48:49;;;;;;;;;;;26.00;96.40;;;;;;6167925;23;19908;-48
2022/10/15 11:51:18;;;;;;;;;;;26.10;96.30;;;;;;6168007;23;19936;-46
2022/10/15 11:54:03;;;;;;;;;;;26.10;96.30;;;;;;6165523;23;19907;-47
2022/10/15 11:56:35;;;;;;;;;;;26.10;96.50;;;;;;6165552;23;19912;-43
2022/10/15 11:59:19;;;;;;;;;;;26.10;96.20;;;;;;6165310;23;19915;-43
2022/10/15 12:01:45;;;;;;;;;;;26.10;96.10;;;;;;6164759;23;19936;-45
2022/10/15 12:04:15;;;;;;;;;;;26.20;96.10;;;;;;6164875;23;20196;-49
2022/10/15 12:06:47;;;;;;;;;;;26.20;96.10;;;;;;6164056;23;19908;-44
2022/10/15 12:09:15;;;;;;;;;;;26.20;96.10;;;;;;6165209;23;19916;-45
2022/10/15 12:11:50;;;;;;;;;;;26.20;96.10;;;;;;6165398;23;19900;-52
2022/10/15 12:14:16;;;;;;;;;;;26.20;96.00;;;;;;6165653;23;19912;-45
2022/10/15 12:16:53;;;;;;;;;;;26.20;96.10;;;;;;6165594;23;19908;-45
2022/10/15 12:19:21;;;;;;;;;;;26.20;96.10;;;;;;6166250;23;19909;-47
2022/10/15 12:21:56;;;;;;;;;;;26.20;96.00;;;;;;6167859;23;19905;-51
2022/10/15 12:24:43;;;;;;;;;;;26.20;96.00;;;;;;6167619;23;19908;-43
2022/10/15 12:27:19;;;;;;;;;;;26.20;96.10;;;;;;6168143;23;19908;-43
2022/10/15 12:29:45;;;;;;;;;;;26.20;96.10;;;;;;6167962;23;19931;-43
2022/10/15 12:32:25;;;;;;;;;;;26.20;96.20;;;;;;6167928;23;20181;-44
2022/10/15 12:34:55;;;;;;;;;;;26.30;96.10;;;;;;6168277;23;20180;-51
2022/10/15 12:37:22;;;;;;;;;;;26.30;96.20;;;;;;6167718;23;20082;-44
2022/10/15 12:39:54;;;;;;;;;;;26.30;96.20;;;;;;6168198;23;19916;-51
2022/10/15 12:42:27;;;;;;;;;;;26.30;96.10;;;;;;6167333;23;19915;-43
2022/10/15 12:44:54;;;;;;;;;;;26.30;96.10;;;;;;6167723;23;19904;-44
2022/10/15 12:47:39;;;;;;;;;;;26.30;96.20;;;;;;6167559;23;20231;-50
2022/10/15 12:50:05;;;;;;;;;;;26.30;96.10;;;;;;6167779;23;20169;-54
2022/10/15 12:52:51;;;;;;;;;;;26.30;96.20;;;;;;6167903;23;19905;-46
2022/10/15 12:55:20;;;;;;;;;;;26.30;96.20;;;;;;6167481;23;19958;-45
2022/10/15 12:57:46;;;;;;;;;;;26.30;96.20;;;;;;6167992;23;20185;-49
2022/10/15 13:00:24;;;;;;;;;;;26.30;96.20;;;;;;6168060;23;19951;-53
2022/10/15 13:02:51;;;;;;;;;;;26.30;96.30;;;;;;6167687;23;19908;-50
2022/10/15 13:05:26;;;;;;;;;;;26.30;96.20;;;;;;6168309;23;20133;-46
2022/10/15 13:07:54;;;;;;;;;;;26.30;96.40;;;;;;6167200;23;19905;-43
2022/10/15 13:10:23;;;;;;;;;;;26.30;96.40;;;;;;6168127;23;19904;-44
2022/10/15 13:12:54;;;;;;;;;;;26.30;96.30;;;;;;6167210;23;19908;-42
2022/10/15 13:15:22;;;;;;;;;;;26.30;96.40;;;;;;6167843;23;19932;-43
2022/10/15 13:17:48;;;;;;;;;;;26.30;96.50;;;;;;6167571;23;19932;-44
2022/10/15 13:20:29;;;;;;;;;;;26.30;96.60;;;;;;6167486;23;19908;-46
2022/10/15 13:23:16;;;;;;;;;;;26.30;96.70;;;;;;6167232;23;19929;-50
2022/10/15 13:25:42;;;;;;;;;;;26.30;96.90;;;;;;6167215;23;19971;-50
2022/10/15 13:28:26;;;;;;;;;;;26.30;96.90;;;;;;6166996;23;19947;-46
2022/10/15 13:30:53;;;;;;;;;;;26.30;97.10;;;;;;6167267;23;19956;-45
2022/10/15 13:33:20;;;;;;;;;;;26.30;97.00;;;;;;6166850;23;19920;-45
2022/10/15 13:35:46;;;;;;;;;;;26.30;97.10;;;;;;6167898;23;19915;-42
2022/10/15 13:38:20;;;;;;;;;;;26.30;97.10;;;;;;6167267;23;19943;-44
2022/10/15 13:40:47;;;;;;;;;;;26.30;97.20;;;;;;6167379;23;19919;-44
2022/10/15 13:43:19;;;;;;;;;;;26.30;97.20;;;;;;6167383;23;19905;-52
2022/10/15 13:45:47;;;;;;;;;;;26.30;97.30;;;;;;6167901;23;19948;-41
2022/10/15 13:48:18;;;;;;;;;;;26.20;97.40;;;;;;6166692;23;19905;-47
2022/10/15 13:50:46;;;;;;;;;;;26.30;97.50;;;;;;6167635;23;19909;-48
2022/10/15 13:53:15;;;;;;;;;;;26.20;97.50;;;;;;6166572;23;19940;-48
2022/10/15 13:55:45;;;;;;;;;;;26.20;97.90;;;;;;6166864;23;19917;-47
2022/10/15 13:58:19;;;;;;;;;;;26.20;97.70;;;;;;6167027;23;19904;-45
2022/10/15 14:01:08;;;;;;;;;;;26.20;97.80;;;;;;6167255;23;19920;-54
2022/10/15 14:03:40;;;;;;;;;;;26.20;97.70;;;;;;6155490;23;19912;-49
2022/10/15 14:06:24;;;;;;;;;;;26.20;97.60;;;;;;6167081;23;19947;-43
2022/10/15 14:08:52;;;;;;;;;;;26.20;98.00;;;;;;6166728;23;19912;-52
2022/10/15 14:11:18;;;;;;;;;;;26.30;97.80;;;;;;6166496;23;19904;-44
2022/10/15 14:13:45;;;;;;;;;;;26.30;97.90;;;;;;6166287;23;20189;-50
2022/10/15 14:16:20;;;;;;;;;;;26.30;97.80;;;;;;6166884;23;20264;-44
2022/10/15 14:18:50;;;;;;;;;;;26.30;97.80;;;;;;6166727;23;19905;-43
2022/10/15 14:21:18;;;;;;;;;;;26.30;97.80;;;;;;6167095;23;19915;-51
2022/10/15 14:23:45;;;;;;;;;;;26.20;97.80;;;;;;6166491;23;20184;-48
2022/10/15 14:26:12;;;;;;;;;;;26.30;97.90;;;;;;6168981;23;19904;-50
2022/10/15 14:28:39;;;;;;;;;;;26.30;97.90;;;;;;6168178;23;19911;-48